Elk Mountain, WY (82324)

10:53 PM MDT on August 29, 2014 (GMT -0600)
WYDOT Wagonhound by Arlington | Change Station
CLOSE
Current Station
Personal Weather Station
Location: Elk Mountain, WY
Elevation: 7619 ft
Nearby Weather Stations

Elev 7619 ft 41.64 °N, 106.29 °W | Updated 2 days ago

Partly Cloudy
Partly Cloudy
54 °F
Feels Like 54 °F
N
8
Wind Variable Wind from SSW
Gusts 12 mph

Today
High -- | Low -- °F
--% Chance of Precip.
Yesterday
High -- | Low -- °F
Precip. -- in
6:28 AM 7:43 PM
Waxing Crescent, 19% visible
Pressure 30.19 in
Visibility 10.0 miles
Clouds Scattered Clouds 11000 ft
Dew Point 41 °F
Humidity 60%
Rainfall -9999.00 in
Snow Depth 0 in
UV 0 out of 12
Pollen 8.80 out of 12
Air Quality Not available.
Flu Activity Not available.
METAR KEHY 300435Z AUTO 10005KT 10SM SCT110 13/05 A3019 RMK AO2 LTG DSNT SE

More Conditions Fewer Conditions

Pressure 30.19 in
Visibility 10.0 miles
Clouds Scattered Clouds 11000 ft
Dew Point 41 °F
Humidity 60%
Rainfall -9999.00 in
Snow Depth 0 in
UV 0 out of 12
Pollen 8.80 out of 12
Air Quality Not available.
Flu Activity Not available.
METAR KEHY 300435Z AUTO 10005KT 10SM SCT110 13/05 A3019 RMK AO2 LTG DSNT SE

More Conditions Fewer Conditions

10-Day Weather Forecast

Almanac

Astronomy

Aug. 29, 2014 Rise Set
Actual Time 6:28 AM MDT 7:43 PM MDT
Civil Twilight 5:59 AM MDT 8:12 PM MDT
Nautical Twilight 5:25 AM MDT 8:46 PM MDT
Astronomical Twilight 4:48 AM MDT 9:22 PM MDT
Moon 10:24 AM MDT (8/29) 9:38 PM MDT (8/29)
Length of Visible Light 14h 12m
Length of Day
13h 15m
Tomorrow will be 2m 39s shorter.
Waxing Crescent, 19% of the Moon is Illuminated
Aug 30
Waxing Crescent
Sep 2
First Quarter
Sep 8
Full
Sep 15
Last Quarter
Sep 24
New

Yesterday's Extremes

State Highs State Lows

Community

WunderPhotos

Upload Photos

1,748,454 photos uploaded!

Nearby

Snow Depth

Station Depth Elevation
Sand Lake 0 in 10050 ft
Brooklyn Lake 0 in 10220 ft
South Brush Creek 0 in 8440 ft
Cinnabar Park 0 in 9690 ft
Webber Springs 0 in 9250 ft

Earthquake Activity

City Distance Mag. Time & Date
No recent earthquake activity has been reported nearby.
Minimum magnitude displayed is 2.5.

Coastal Water Temperatures

Place Temperature
No Stations Reporting

Nearby Weather Stations